»·PEaware :: WAT169 KLAS-KSNA

WAT169 :: KLAS-KSNA

FLIGHT INFORMATION

Flight Status: Arrived
Operator: Unknown
More flights by this operator :: More flights under this callsign
Pilot: Marty P. (27464)
Aircraft: BOEING 737-800
(B738)
More flights by this aircraft type
Origin: KLAS McCarran Intl
United States
Destination: KSNA John Wayne-Orange Co
United States
More flights between these airports :: More routes between these airports
Route: BOACH8 WHIGG FEYLA DSNEE4
File this flight plan on PilotEdge
Remarks:
Altitude:
(Current/Filed)
28,000ft
Speed:
(Current/Filed)
470kts
Departed: 16-May-20 09:31 PM
Arrived: 16-May-20 10:10 PM
Distance/Time
Traveled:
197nm/0:39
Distance/Time
To Go:
Arrived

Flight Plot

Page will automatically refresh every two minutes.


Map Options




Map Legend


Flown Route
Filed Route
Departure Airport
Arrival Airport
Navaid (VOR, NDB)
Fix

Horizontal Profiles

Position Reports

Time Latitude Longitude Heading Altitude Ground
Speed
16-May-20 21:10 36.080313 -115.147275 61 2191ft 0kts
16-May-20 21:11 36.080313 -115.147275 61 2191ft 0kts
16-May-20 21:12 36.080313 -115.147275 61 2191ft 0kts
16-May-20 21:13 36.080313 -115.147275 61 2191ft 0kts
16-May-20 21:14 36.080313 -115.147275 61 2191ft 0kts
16-May-20 21:15 36.080313 -115.147275 61 2191ft 0kts
16-May-20 21:16 36.080313 -115.147275 61 2191ft 0kts
16-May-20 21:17 36.080313 -115.147275 61 2191ft 0kts
16-May-20 21:18 36.080238 -115.147467 77 2191ft 2kts
16-May-20 21:19 36.080415 -115.148134 142 2191ft 2kts
16-May-20 21:20 36.080492 -115.148199 152 2191ft 0kts
16-May-20 21:21 36.080492 -115.148199 152 2191ft 0kts
16-May-20 21:22 36.080463 -115.148180 152 2191ft 1kts
16-May-20 21:23 36.078577 -115.146896 113 2191ft 11kts
16-May-20 21:24 36.078267 -115.141837 90 2191ft 15kts
16-May-20 21:25 36.078266 -115.136485 90 2191ft 16kts
16-May-20 21:26 36.078272 -115.130697 90 2191ft 16kts
16-May-20 21:27 36.078277 -115.125399 90 2191ft 13kts
16-May-20 21:28 36.077647 -115.121752 128 2191ft 4kts
16-May-20 21:29 36.076451 -115.122100 268 2191ft 11kts
16-May-20 21:30 36.076646 -115.160162 269 2877ft 184kts
16-May-20 21:31 36.070747 -115.233203 243 4570ft 260kts
16-May-20 21:32 36.013809 -115.282529 199 7008ft 259kts
16-May-20 21:33 35.944785 -115.304985 186 8598ft 261kts
16-May-20 21:34 35.872825 -115.313289 185 11544ft 279kts
16-May-20 21:35 35.782145 -115.306710 175 12493ft 360kts
16-May-20 21:36 35.682482 -115.311987 203 14852ft 374kts
16-May-20 21:37 35.602149 -115.397142 228 16947ft 388kts
16-May-20 21:38 35.528385 -115.496408 228 18826ft 401kts
16-May-20 21:39 35.453431 -115.597315 229 19692ft 402kts
16-May-20 21:40 35.379555 -115.696853 228 21590ft 410kts
16-May-20 21:41 35.302002 -115.801085 229 23333ft 418kts
16-May-20 21:42 35.222666 -115.907411 228 24902ft 428kts
16-May-20 21:43 35.139227 -116.012529 227 26400ft 436kts
16-May-20 21:44 35.054392 -116.119110 227 27760ft 442kts
16-May-20 21:45 34.967894 -116.227751 227 27889ft 451kts
16-May-20 21:46 34.883783 -116.333105 227 27880ft 437kts
16-May-20 21:47 34.798724 -116.441032 228 27854ft 443kts
16-May-20 21:48 34.714063 -116.548692 227 27847ft 426kts
16-May-20 21:49 34.629858 -116.636644 221 27788ft 391kts
16-May-20 21:50 34.544825 -116.720072 220 23964ft 415kts
16-May-20 21:51 34.461163 -116.809559 224 20153ft 391kts
16-May-20 21:53 34.387729 -116.894849 224 17551ft 339kts
16-May-20 21:54 34.318966 -116.974437 224 15517ft 347kts
16-May-20 21:55 34.246688 -117.048375 212 13977ft 331kts
16-May-20 21:56 34.166810 -117.104895 206 13006ft 329kts
16-May-20 21:57 34.081830 -117.150584 205 12983ft 335kts
16-May-20 21:58 33.999684 -117.198926 218 12027ft 324kts
16-May-20 21:59 33.939050 -117.276461 229 10696ft 307kts
16-May-20 22:00 33.886350 -117.351071 229 9502ft 275kts
16-May-20 22:01 33.840121 -117.416391 228 8468ft 245kts
16-May-20 22:02 33.822167 -117.493896 277 7332ft 255kts
16-May-20 22:03 33.832242 -117.578714 275 6102ft 258kts
16-May-20 22:04 33.833114 -117.664353 268 4823ft 249kts
16-May-20 22:05 33.832967 -117.744227 266 3632ft 235kts
16-May-20 22:06 33.793377 -117.794403 206 2595ft 205kts
16-May-20 22:07 33.751283 -117.820894 208 1621ft 148kts
16-May-20 22:08 33.714053 -117.844540 208 793ft 149kts
16-May-20 22:09 33.677056 -117.867992 207 73ft 141kts
16-May-20 22:10 33.667586 -117.872923 102 66ft 2kts
16-May-20 22:10 33.668088 -117.871991 42 66ft 8kts
16-May-20 22:12 33.671636 -117.868445 32 66ft 15kts
16-May-20 22:13 33.674453 -117.866254 27 66ft 12kts
16-May-20 22:13 33.675019 -117.865104 117 66ft 0kts
16-May-20 22:14 33.675017 -117.865098 117 66ft 0kts

Navigation Log

Ident Type
Flight plan parsing failed, navigation log unavailable